TimeEDT,TemperatureF,Dew PointF,Humidity,Sea Level PressureIn,VisibilityMPH,Wind Direction,Wind SpeedMPH,Gust SpeedMPH,PrecipitationIn,Events,Conditions,WindDirDegrees,DateUTC
12:51 AM,55.9,48.0,75,30.12,10.0,SW,5.8,-,N/A,,Clear,230,2013-09-10 04:51:00
1:51 AM,55.0,48.0,77,30.13,10.0,West,3.5,-,N/A,,Clear,260,2013-09-10 05:51:00
2:51 AM,55.0,48.0,77,30.13,10.0,SSW,6.9,-,N/A,,Clear,210,2013-09-10 06:51:00
3:51 AM,55.9,48.9,77,30.09,10.0,SSW,9.2,-,N/A,,Clear,210,2013-09-10 07:51:00
4:51 AM,55.9,50.0,80,30.11,10.0,SW,5.8,-,N/A,,Partly Cloudy,230,2013-09-10 08:51:00
5:51 AM,55.0,50.0,83,30.10,10.0,SSW,6.9,-,N/A,,Scattered Clouds,200,2013-09-10 09:51:00
6:51 AM,55.0,50.0,83,30.10,10.0,SSW,3.5,-,N/A,,Scattered Clouds,210,2013-09-10 10:51:00
7:51 AM,57.0,52.0,83,30.10,10.0,SSW,8.1,-,N/A,,Mostly Cloudy,210,2013-09-10 11:51:00
8:51 AM,60.1,54.0,80,30.10,10.0,SW,6.9,-,N/A,,Scattered Clouds,230,2013-09-10 12:51:00
9:51 AM,64.0,55.9,75,30.08,10.0,SSW,10.4,-,N/A,,Clear,200,2013-09-10 13:51:00
10:51 AM,66.0,57.9,75,30.08,10.0,SSW,6.9,-,N/A,,Clear,200,2013-09-10 14:51:00
11:21 AM,66.0,57.9,75,30.08,10.0,SW,9.2,-,N/A,,Mostly Cloudy,220,2013-09-10 15:21:00
11:51 AM,66.0,59.0,78,30.07,10.0,SW,9.2,-,0.00,,Light Drizzle,220,2013-09-10 15:51:00
12:51 PM,64.9,61.0,87,30.07,8.0,South,3.5,-,0.00,Rain,Light Rain,180,2013-09-10 16:51:00
1:51 PM,63.0,62.1,97,30.05,5.0,South,6.9,-,0.05,Rain,Light Rain,170,2013-09-10 17:51:00
2:51 PM,64.0,62.1,93,30.04,10.0,SE,4.6,-,0.01,Rain,Light Rain,130,2013-09-10 18:51:00
3:28 PM,64.0,62.1,93,30.03,10.0,SE,4.6,-,0.00,,Overcast,130,2013-09-10 19:28:00
3:51 PM,64.9,63.0,93,30.03,10.0,SE,4.6,-,0.00,,Overcast,130,2013-09-10 19:51:00
4:03 PM,64.9,63.0,93,30.03,10.0,South,6.9,-,N/A,,Overcast,170,2013-09-10 20:03:00
4:11 PM,64.9,63.0,93,30.03,10.0,SSE,5.8,-,N/A,,Overcast,160,2013-09-10 20:11:00
4:20 PM,64.9,63.0,93,30.03,9.0,South,5.8,-,N/A,,Overcast,180,2013-09-10 20:20:00
4:28 PM,64.9,63.0,93,30.03,9.0,South,3.5,-,N/A,,Overcast,180,2013-09-10 20:28:00
4:51 PM,64.9,63.0,93,30.02,3.0,South,4.6,-,N/A,,Overcast,180,2013-09-10 20:51:00
5:51 PM,66.0,63.0,90,30.04,9.0,South,4.6,-,N/A,,Overcast,180,2013-09-10 21:51:00
6:51 PM,64.9,63.0,93,30.04,7.0,South,4.6,-,N/A,,Overcast,180,2013-09-10 22:51:00
7:14 PM,64.0,62.1,93,30.05,9.0,NE,5.8,-,N/A,,Overcast,50,2013-09-10 23:14:00
7:51 PM,63.0,61.0,93,30.06,7.0,Calm,Calm,-,N/A,,Scattered Clouds,0,2013-09-10 23:51:00
8:03 PM,63.0,62.1,97,30.07,7.0,Calm,Calm,-,N/A,,Mostly Cloudy,0,2013-09-11 00:03:00
8:17 PM,63.0,62.1,97,30.07,7.0,Calm,Calm,-,N/A,,Overcast,0,2013-09-11 00:17:00
8:30 PM,63.0,61.0,93,30.07,7.0,East,3.5,-,N/A,,Overcast,80,2013-09-11 00:30:00
8:51 PM,63.0,61.0,93,30.07,7.0,Calm,Calm,-,N/A,,Mostly Cloudy,0,2013-09-11 00:51:00
9:51 PM,63.0,61.0,93,30.07,7.0,NE,3.5,-,N/A,,Overcast,50,2013-09-11 01:51:00
10:51 PM,63.0,61.0,93,30.06,6.0,Calm,Calm,-,N/A,,Overcast,0,2013-09-11 02:51:00
11:15 PM,63.0,61.0,93,30.05,6.0,Calm,Calm,-,N/A,,Overcast,0,2013-09-11 03:15:00
11:24 PM,63.0,61.0,93,30.05,6.0,Calm,Calm,-,N/A,,Overcast,0,2013-09-11 03:24:00
11:36 PM,63.0,61.0,93,30.05,6.0,Calm,Calm,-,N/A,,Overcast,0,2013-09-11 03:36:00
11:51 PM,63.0,61.0,93,30.05,6.0,Calm,Calm,-,N/A,,Overcast,0,2013-09-11 03:51:00